Terminal Aerodrome Forecast
Issued by NWS

Home | Current Version | Previous Version | Text Only | Print | Product List | Glossary On
Versions: 1 2 3 4 5 6 7 8 9 10 11 12 13 14 15 16 17 18 19 20 21
000
FTUS46 KMFR 310500
TAFOTH
TAF
KOTH 310538Z 3106/0106 VRB03KT P6SM -RA OVC020
     FM310800 VRB03KT 5SM RA BR FEW005 OVC012
     FM311200 17004KT P6SM -SHRA BKN035 OVC050
     FM312100 21010KT P6SM VCSH BKN040
     FM010200 15006KT P6SM SCT040=

USA.gov is the U.S. government's official web portal to all federal, state and local government web resources and services.